createdAt,value
2023-01-02T00:02:02.412Z,45.40
2023-01-02T00:04:28.724Z,45.38
2023-01-02T00:06:55.295Z,45.35
2023-01-02T00:09:21.669Z,45.43
2023-01-02T00:11:48.060Z,45.49
2023-01-02T00:14:14.587Z,45.27
2023-01-02T00:16:41.226Z,45.35
2023-01-02T00:19:08.828Z,45.11
2023-01-02T00:21:35.475Z,44.94
2023-01-02T00:24:02.023Z,44.88
2023-01-02T00:26:30.190Z,44.60
2023-01-02T00:28:56.705Z,44.70
2023-01-02T00:31:23.103Z,44.62
2023-01-02T00:33:49.571Z,44.55
2023-01-02T00:36:16.496Z,44.44
2023-01-02T00:38:42.858Z,44.62
2023-01-02T00:41:09.618Z,44.48
2023-01-02T00:43:37.392Z,44.58
2023-01-02T00:46:10.853Z,44.48
2023-01-02T00:48:37.936Z,44.35
2023-01-02T00:51:04.426Z,44.41
2023-01-02T00:53:30.878Z,44.27
2023-01-02T00:55:59.752Z,44.27
2023-01-02T00:58:26.143Z,44.15
2023-01-02T01:00:52.887Z,44.14
2023-01-02T01:03:19.536Z,44.12
2023-01-02T01:05:45.941Z,44.07
2023-01-02T01:08:12.544Z,43.99
2023-01-02T01:10:39.537Z,44.25
2023-01-02T01:13:06.682Z,44.16
2023-01-02T01:15:34.323Z,44.15
2023-01-02T01:18:01.061Z,44.15
2023-01-02T01:20:27.635Z,44.25
2023-01-02T01:22:54.040Z,44.38
2023-01-02T01:25:21.943Z,44.61
2023-01-02T01:27:48.343Z,44.52
2023-01-02T01:30:14.841Z,44.44
2023-01-02T01:32:41.411Z,44.59
2023-01-02T01:35:08.123Z,44.77
2023-01-02T01:37:34.504Z,44.92
2023-01-02T01:40:01.299Z,44.95
2023-01-02T01:42:34.490Z,45.22
2023-01-02T01:45:01.594Z,44.97
2023-01-02T01:47:40.230Z,45.63
2023-01-02T01:50:12.326Z,45.04
2023-01-02T01:52:44.884Z,45.48
2023-01-02T01:55:19.160Z,45.61
2023-01-02T01:57:51.625Z,45.39
2023-01-02T02:00:20.168Z,45.01
2023-01-02T02:02:52.385Z,45.19
2023-01-02T02:05:23.746Z,45.33
2023-01-02T02:08:34.306Z,45.52
2023-01-02T02:11:01.962Z,45.30
2023-01-02T02:13:31.413Z,45.34
2023-01-02T02:16:12.051Z,45.75
2023-01-02T02:18:46.584Z,45.59
2023-01-02T02:21:15.964Z,45.35
2023-01-02T02:23:54.365Z,45.63
2023-01-02T02:26:32.882Z,45.31
2023-01-02T02:29:27.528Z,45.55
2023-01-02T02:32:04.515Z,45.42
2023-01-02T02:34:49.003Z,45.30
2023-01-02T02:37:44.690Z,45.38
2023-01-02T02:40:42.926Z,45.54
2023-01-02T02:43:27.623Z,45.08
2023-01-02T02:46:19.379Z,45.35
2023-01-02T02:49:12.395Z,45.76
2023-01-02T02:51:48.678Z,45.76
2023-01-02T02:54:39.958Z,45.73
2023-01-02T02:57:08.623Z,45.64
2023-01-02T02:59:37.322Z,45.39
2023-01-02T03:02:05.360Z,45.66
2023-01-02T03:04:32.353Z,45.67
2023-01-02T03:07:16.747Z,45.88
2023-01-02T03:09:54.684Z,45.60
2023-01-02T03:12:43.662Z,45.75
2023-01-02T03:15:20.343Z,45.73
2023-01-02T03:17:55.702Z,45.71
2023-01-02T03:20:28.496Z,45.83
2023-01-02T03:23:01.104Z,45.71
2023-01-02T03:25:27.753Z,45.42
2023-01-02T03:27:57.487Z,45.60
2023-01-02T03:30:24.148Z,45.50
2023-01-02T03:32:56.656Z,45.46
2023-01-02T03:35:50.840Z,45.55
2023-01-02T03:38:27.448Z,45.51
2023-01-02T03:41:05.494Z,45.15
2023-01-02T03:43:35.754Z,45.23
2023-01-02T03:46:29.301Z,45.45
2023-01-02T03:49:06.311Z,45.37
2023-01-02T03:51:34.475Z,45.13
2023-01-02T03:54:02.824Z,45.24
2023-01-02T03:56:51.093Z,45.24
2023-01-02T03:59:36.338Z,45.38
2023-01-02T04:02:15.609Z,45.68
2023-01-02T04:04:55.496Z,45.72
2023-01-02T04:07:37.073Z,45.65
2023-01-02T04:10:06.597Z,45.51
2023-01-02T04:12:36.681Z,45.57
2023-01-02T04:15:09.829Z,45.74
2023-01-02T04:17:44.541Z,45.70
2023-01-02T04:20:17.392Z,45.87
2023-01-02T04:22:52.215Z,46.18
2023-01-02T04:25:19.352Z,45.88
2023-01-02T04:27:57.084Z,46.60
2023-01-02T04:30:23.489Z,46.14
2023-01-02T04:32:51.590Z,46.18
2023-01-02T04:35:23.189Z,46.32
2023-01-02T04:37:49.895Z,46.17
2023-01-02T04:40:24.607Z,46.16
2023-01-02T04:42:51.319Z,46.20
2023-01-02T04:45:17.839Z,46.15
2023-01-02T04:47:44.712Z,46.18
2023-01-02T04:50:12.928Z,46.19
2023-01-02T04:52:39.349Z,46.12
2023-01-02T04:55:09.828Z,46.24
2023-01-02T04:57:37.541Z,46.27
2023-01-02T05:00:05.402Z,46.46
2023-01-02T05:02:39.364Z,46.68
2023-01-02T05:05:07.615Z,46.03
2023-01-02T05:07:34.790Z,46.07
2023-01-02T05:10:01.190Z,46.10
2023-01-02T05:12:27.921Z,46.01
2023-01-02T05:14:54.366Z,46.20
2023-01-02T05:17:20.735Z,45.94
2023-01-02T05:19:47.387Z,46.02
2023-01-02T05:22:32.592Z,45.90
2023-01-02T05:24:59.113Z,45.83
2023-01-02T05:27:25.572Z,45.85
2023-01-02T05:29:51.987Z,45.98
2023-01-02T05:32:20.381Z,45.86
2023-01-02T05:34:46.704Z,45.70
2023-01-02T05:37:13.046Z,45.69
2023-01-02T05:39:39.485Z,45.63
2023-01-02T05:42:06.203Z,45.95
2023-01-02T05:44:32.897Z,45.56
2023-01-02T05:46:59.287Z,45.54
2023-01-02T05:49:25.732Z,45.47
2023-01-02T05:51:52.134Z,45.52
2023-01-02T05:54:18.902Z,45.49
2023-01-02T05:56:45.284Z,45.49
2023-01-02T05:59:15.064Z,45.48
2023-01-02T06:01:41.668Z,45.58
2023-01-02T06:04:09.227Z,45.61
2023-01-02T06:06:39.007Z,45.62
2023-01-02T06:09:07.463Z,45.55
2023-01-02T06:11:34.757Z,45.46
2023-01-02T06:14:01.151Z,45.64
2023-01-02T06:16:27.793Z,45.42
2023-01-02T06:18:55.213Z,45.33
2023-01-02T06:21:22.599Z,45.32
2023-01-02T06:23:53.066Z,45.38
2023-01-02T06:26:20.541Z,45.36
2023-01-02T06:28:51.089Z,45.33
2023-01-02T06:31:21.923Z,45.14
2023-01-02T06:33:49.839Z,45.08
2023-01-02T06:36:18.084Z,45.10
2023-01-02T06:38:45.589Z,45.16
2023-01-02T06:41:13.310Z,45.04
2023-01-02T06:43:48.097Z,45.04
2023-01-02T06:46:16.726Z,45.12
2023-01-02T06:48:43.524Z,45.00
2023-01-02T06:51:16.191Z,45.15
2023-01-02T06:53:43.467Z,45.13
2023-01-02T06:56:11.079Z,44.76
2023-01-02T06:58:38.354Z,44.92
2023-01-02T07:01:22.439Z,44.70
2023-01-02T07:03:49.181Z,44.92
2023-01-02T07:06:18.382Z,45.10
2023-01-02T07:08:45.467Z,45.16
2023-01-02T07:11:17.539Z,44.69
2023-01-02T07:13:45.367Z,44.81
2023-01-02T07:16:14.735Z,44.83
2023-01-02T07:18:41.952Z,44.79
2023-01-02T07:21:10.547Z,44.61
2023-01-02T07:23:37.078Z,44.65
2023-01-02T07:26:05.367Z,44.61
2023-01-02T07:28:32.948Z,44.52
2023-01-02T07:31:03.186Z,44.44
2023-01-02T07:33:30.823Z,44.64
2023-01-02T07:36:02.097Z,44.66
2023-01-02T07:38:28.966Z,44.58
2023-01-02T07:40:55.615Z,44.76
2023-01-02T07:43:22.606Z,44.68
2023-01-02T07:45:50.596Z,44.66
2023-01-02T07:48:17.839Z,44.60
2023-01-02T07:50:44.379Z,44.54
2023-01-02T07:53:10.796Z,44.80
2023-01-02T07:55:37.173Z,44.85
2023-01-02T07:58:04.597Z,44.82
2023-01-02T08:00:31.205Z,44.82
2023-01-02T08:02:57.769Z,44.81
2023-01-02T08:05:24.124Z,44.75
2023-01-02T08:07:50.490Z,44.63
2023-01-02T08:10:16.956Z,44.89
2023-01-02T08:12:43.461Z,45.14
2023-01-02T08:15:10.232Z,45.32
2023-01-02T08:17:36.827Z,45.42
2023-01-02T08:20:10.395Z,45.41
2023-01-02T08:22:37.501Z,45.36
2023-01-02T08:25:04.460Z,45.56
2023-01-02T08:27:30.980Z,45.64
2023-01-02T08:29:58.532Z,45.70
2023-01-02T08:32:25.305Z,45.78
2023-01-02T08:34:51.821Z,45.84
2023-01-02T08:37:18.559Z,45.96
2023-01-02T08:39:44.911Z,45.89
2023-01-02T08:42:11.414Z,45.73
2023-01-02T08:44:38.234Z,46.01
2023-01-02T08:47:05.469Z,46.16
2023-01-02T08:49:32.025Z,46.24
2023-01-02T08:51:58.464Z,46.08
2023-01-02T08:54:24.849Z,46.51
2023-01-02T08:56:51.423Z,46.46
2023-01-02T08:59:17.797Z,46.68
2023-01-02T09:01:44.479Z,46.53
2023-01-02T09:04:13.269Z,46.56
2023-01-02T09:06:42.565Z,47.02
2023-01-02T09:09:12.309Z,46.76
2023-01-02T09:11:51.095Z,47.62
2023-01-02T09:14:19.299Z,47.02
2023-01-02T09:16:45.915Z,47.14
2023-01-02T09:19:12.568Z,47.39
2023-01-02T09:21:38.995Z,47.19
2023-01-02T09:24:06.184Z,47.35
2023-01-02T09:26:32.796Z,47.49
2023-01-02T09:28:59.182Z,47.55
2023-01-02T09:31:25.801Z,47.68
2023-01-02T09:33:53.740Z,47.89
2023-01-02T09:36:20.808Z,47.98
2023-01-02T09:39:05.686Z,48.96
2023-01-02T09:41:38.660Z,48.26
2023-01-02T09:44:18.816Z,48.47
2023-01-02T09:47:03.711Z,48.29
2023-01-02T09:49:34.015Z,47.50
2023-01-02T09:52:00.726Z,47.55
2023-01-02T09:54:34.966Z,48.03
2023-01-02T09:57:29.493Z,48.91
2023-01-02T10:00:20.185Z,48.81
2023-01-02T10:03:01.489Z,48.84
2023-01-02T10:05:33.371Z,48.52
2023-01-02T10:08:44.288Z,49.25
2023-01-02T10:11:20.117Z,48.47
2023-01-02T10:16:46.428Z,48.64
2023-01-02T10:19:22.497Z,49.22
2023-01-02T10:21:52.458Z,48.71
2023-01-02T10:24:34.531Z,48.81
2023-01-02T10:27:01.936Z,48.43
2023-01-02T10:29:42.397Z,48.45
2023-01-02T10:32:16.987Z,47.88
2023-01-02T10:34:53.201Z,47.91
2023-01-02T10:37:19.796Z,47.88
2023-01-02T10:39:50.455Z,48.31
2023-01-02T10:42:17.227Z,47.95
2023-01-02T10:44:45.695Z,47.92
2023-01-02T10:47:28.656Z,49.00
2023-01-02T10:49:56.954Z,48.79
2023-01-02T10:52:39.021Z,49.25
2023-01-02T10:55:06.292Z,48.67
2023-01-02T10:57:51.536Z,49.20
2023-01-02T11:00:22.583Z,48.59
2023-01-02T11:02:57.904Z,48.84
2023-01-02T11:05:28.759Z,48.48
2023-01-02T11:07:56.038Z,48.44
2023-01-02T11:10:49.899Z,48.51
2023-01-02T11:13:18.950Z,48.50
2023-01-02T11:16:03.306Z,49.20
2023-01-02T11:18:32.061Z,48.23
2023-01-02T11:21:04.293Z,48.29
2023-01-02T11:23:44.864Z,48.89
2023-01-02T11:26:22.620Z,49.26
2023-01-02T11:28:51.638Z,48.42
2023-01-02T11:31:19.139Z,48.65
2023-01-02T11:33:46.851Z,48.61
2023-01-02T11:36:13.265Z,48.76
2023-01-02T11:38:48.345Z,48.70
2023-01-02T11:41:51.451Z,48.71
2023-01-02T11:44:50.507Z,48.47
2023-01-02T11:47:17.691Z,48.39
2023-01-02T11:49:48.423Z,48.33
2023-01-02T11:52:19.299Z,48.18
2023-01-02T11:55:07.791Z,48.52
2023-01-02T11:57:52.540Z,48.04
2023-01-02T12:00:21.277Z,47.86
2023-01-02T12:02:50.796Z,47.75
2023-01-02T12:05:47.491Z,47.83
2023-01-02T12:08:40.384Z,48.29
2023-01-02T12:11:27.535Z,48.13
2023-01-02T12:14:06.249Z,48.29
2023-01-02T12:16:44.554Z,48.14
2023-01-02T12:19:38.291Z,48.01
2023-01-02T12:22:23.345Z,47.61
2023-01-02T12:25:10.185Z,47.80
2023-01-02T12:27:46.283Z,47.86
2023-01-02T12:30:16.701Z,47.84
2023-01-02T12:32:55.197Z,47.40
2023-01-02T12:35:32.443Z,48.05
2023-01-02T12:38:02.157Z,47.44
2023-01-02T12:40:57.353Z,47.98
2023-01-02T12:43:36.923Z,48.52
2023-01-02T12:46:32.011Z,48.27
2023-01-02T12:49:13.337Z,48.42
2023-01-02T12:51:56.315Z,48.62
2023-01-02T12:54:40.705Z,48.48
2023-01-02T12:57:29.376Z,48.50
2023-01-02T13:00:20.205Z,48.70
2023-01-02T13:03:05.398Z,48.64
2023-01-02T13:05:42.173Z,48.99
2023-01-02T13:08:20.580Z,48.50
2023-01-02T13:10:48.009Z,48.53
2023-01-02T13:13:16.420Z,48.46
2023-01-02T13:15:50.127Z,48.89
2023-01-02T13:19:00.631Z,48.75
2023-01-02T13:21:27.453Z,47.86
2023-01-02T13:23:56.648Z,48.26
2023-01-02T13:26:27.631Z,48.30
2023-01-02T13:29:18.669Z,48.10
2023-01-02T13:31:53.970Z,48.17
2023-01-02T13:34:32.012Z,48.33
2023-01-02T13:37:08.070Z,48.44
2023-01-02T13:39:40.745Z,48.09
2023-01-02T13:42:38.850Z,48.12
2023-01-02T13:45:42.339Z,48.37
2023-01-02T13:48:38.092Z,48.65
2023-01-02T13:51:13.811Z,48.56
2023-01-02T13:53:43.448Z,48.23
2023-01-02T13:56:09.872Z,48.14
2023-01-02T13:58:43.071Z,48.27
2023-01-02T14:01:21.705Z,48.41
2023-01-02T14:04:09.493Z,48.09
2023-01-02T14:06:48.546Z,48.48
2023-01-02T14:09:24.343Z,48.66
2023-01-02T14:12:00.471Z,48.74
2023-01-02T14:14:42.969Z,48.29
2023-01-02T14:17:32.392Z,48.44
2023-01-02T14:20:17.223Z,48.50
2023-01-02T14:22:57.116Z,48.28
2023-01-02T14:25:24.503Z,48.17
2023-01-02T14:27:57.176Z,48.01
2023-01-02T14:30:31.668Z,48.09
2023-01-02T14:33:00.368Z,47.63
2023-01-02T14:35:38.000Z,47.82
2023-01-02T14:38:13.150Z,47.70
2023-01-02T14:40:44.177Z,47.45
2023-01-02T14:43:37.513Z,47.61
2023-01-02T14:46:03.796Z,47.54
2023-01-02T14:49:24.998Z,47.66
2023-01-02T14:52:05.650Z,47.33
2023-01-02T14:54:44.876Z,47.57
2023-01-02T14:57:29.596Z,47.58
2023-01-02T14:59:58.581Z,47.10
2023-01-02T15:02:38.252Z,47.03
2023-01-02T15:05:12.279Z,46.99
2023-01-02T15:07:55.767Z,46.71
2023-01-02T15:10:23.829Z,47.00
2023-01-02T15:13:04.392Z,47.10
2023-01-02T15:15:41.144Z,46.91
2023-01-02T15:18:18.361Z,46.90
2023-01-02T15:20:50.595Z,46.67
2023-01-02T15:23:23.378Z,46.99
2023-01-02T15:25:49.894Z,46.95
2023-01-02T15:28:42.867Z,47.25
2023-01-02T15:31:16.188Z,47.66
2023-01-02T15:33:42.635Z,47.44
2023-01-02T15:36:19.515Z,47.82
2023-01-02T15:38:47.564Z,47.78
2023-01-02T15:41:19.131Z,47.49
2023-01-02T15:44:06.120Z,47.76
2023-01-02T15:46:32.553Z,47.41
2023-01-02T15:49:00.372Z,47.40
2023-01-02T15:51:40.147Z,47.68
2023-01-02T15:54:13.406Z,47.01
2023-01-02T15:56:41.069Z,47.18
2023-01-02T15:59:33.611Z,47.04
2023-01-02T16:02:02.808Z,46.43
2023-01-02T16:04:32.517Z,46.94
2023-01-02T16:07:12.804Z,46.84
2023-01-02T16:09:40.164Z,46.79
2023-01-02T16:12:12.144Z,46.90
2023-01-02T16:14:39.470Z,47.33
2023-01-02T16:17:14.936Z,47.26
2023-01-02T16:19:58.811Z,46.96
2023-01-02T16:22:30.948Z,47.38
2023-01-02T16:25:08.988Z,47.25
2023-01-02T16:27:58.743Z,47.35
2023-01-02T16:30:30.474Z,47.42
2023-01-02T16:33:01.411Z,47.34
2023-01-02T16:35:30.305Z,47.42
2023-01-02T16:38:19.056Z,47.59
2023-01-02T16:41:00.752Z,47.48
2023-01-02T16:43:30.369Z,47.64
2023-01-02T16:45:57.829Z,47.80
2023-01-02T16:48:28.590Z,48.02
2023-01-02T16:50:57.306Z,48.03
2023-01-02T16:53:27.945Z,47.96
2023-01-02T16:55:55.065Z,47.91
2023-01-02T16:58:22.711Z,47.87
2023-01-02T17:00:49.543Z,48.02
2023-01-02T17:03:25.521Z,48.55
2023-01-02T17:06:09.858Z,48.36
2023-01-02T17:08:36.364Z,47.87
2023-01-02T17:11:03.054Z,48.26
2023-01-02T17:13:29.888Z,47.85
2023-01-02T17:15:57.305Z,47.96
2023-01-02T17:18:24.259Z,48.15
2023-01-02T17:20:51.069Z,48.06
2023-01-02T17:23:19.569Z,47.98
2023-01-02T17:25:46.567Z,48.52
2023-01-02T17:28:13.568Z,47.78
2023-01-02T17:30:45.174Z,48.25
2023-01-02T17:33:12.098Z,48.27
2023-01-02T17:35:38.683Z,48.20
2023-01-02T17:38:05.156Z,48.34
2023-01-02T17:40:31.658Z,48.23
2023-01-02T17:42:58.565Z,48.20
2023-01-02T17:45:25.424Z,48.24
2023-01-02T17:48:09.283Z,48.27
2023-01-02T17:50:37.873Z,48.22
2023-01-02T17:53:04.414Z,48.09
2023-01-02T17:55:30.923Z,48.49
2023-01-02T17:57:57.342Z,48.31
2023-01-02T18:00:24.011Z,48.39
2023-01-02T18:02:52.681Z,47.99
2023-01-02T18:05:20.806Z,48.45
2023-01-02T18:07:47.143Z,48.53
2023-01-02T18:10:19.451Z,48.43
2023-01-02T18:12:46.977Z,48.40
2023-01-02T18:15:15.001Z,48.39
2023-01-02T18:17:41.388Z,48.29
2023-01-02T18:20:16.920Z,48.40
2023-01-02T18:22:48.920Z,47.97
2023-01-02T18:25:16.469Z,47.84
2023-01-02T18:27:44.779Z,47.82
2023-01-02T18:30:16.308Z,47.75
2023-01-02T18:32:45.076Z,47.69
2023-01-02T18:35:56.640Z,47.75
2023-01-02T18:38:30.818Z,47.55
2023-01-02T18:40:57.276Z,47.68
2023-01-02T18:43:35.677Z,47.64
2023-01-02T18:46:11.046Z,47.76
2023-01-02T18:48:39.203Z,47.35
2023-01-02T18:51:11.722Z,47.41
2023-01-02T18:53:44.913Z,47.69
2023-01-02T18:56:15.637Z,47.51
2023-01-02T18:58:49.298Z,47.50
2023-01-02T19:01:35.234Z,48.03
2023-01-02T19:04:28.283Z,48.10
2023-01-02T19:06:59.944Z,47.99
2023-01-02T19:09:38.377Z,48.12
2023-01-02T19:12:32.683Z,47.95
2023-01-02T19:15:30.847Z,48.06
2023-01-02T19:18:00.044Z,47.71
2023-01-02T19:20:29.139Z,47.80
2023-01-02T19:22:59.853Z,48.18
2023-01-02T19:25:26.407Z,47.98
2023-01-02T19:27:54.859Z,47.77
2023-01-02T19:30:35.717Z,48.32
2023-01-02T19:33:25.076Z,48.45
2023-01-02T19:36:03.220Z,48.09
2023-01-02T19:38:32.212Z,48.10
2023-01-02T19:40:58.753Z,48.00
2023-01-02T19:43:27.845Z,48.17
2023-01-02T19:45:55.025Z,48.10
2023-01-02T19:48:21.854Z,48.40
2023-01-02T19:50:51.043Z,48.50
2023-01-02T19:53:17.696Z,48.30
2023-01-02T19:55:45.018Z,48.65
2023-01-02T19:58:11.407Z,48.67
2023-01-02T20:00:37.782Z,48.63
2023-01-02T20:03:04.927Z,48.88
2023-01-02T20:05:31.446Z,48.61
2023-01-02T20:07:59.326Z,48.68
2023-01-02T20:10:28.286Z,48.80
2023-01-02T20:12:56.028Z,48.76
2023-01-02T20:15:27.080Z,48.54
2023-01-02T20:17:55.018Z,48.89
2023-01-02T20:20:24.715Z,48.47
2023-01-02T20:22:54.083Z,48.81
2023-01-02T20:25:25.949Z,49.07
2023-01-02T20:27:54.159Z,48.99
2023-01-02T20:30:24.488Z,48.97
2023-01-02T20:32:51.742Z,48.79
2023-01-02T20:35:20.689Z,48.95
2023-01-02T20:37:48.916Z,48.80
2023-01-02T20:40:15.530Z,49.33
2023-01-02T20:42:42.119Z,48.90
2023-01-02T20:45:10.763Z,48.82
2023-01-02T20:47:37.333Z,48.74
2023-01-02T20:50:05.940Z,48.87
2023-01-02T20:52:32.380Z,48.95
2023-01-02T20:54:59.237Z,48.80
2023-01-02T20:57:25.693Z,49.02
2023-01-02T20:59:52.641Z,48.87
2023-01-02T21:02:19.163Z,49.16
2023-01-02T21:04:46.010Z,48.90
2023-01-02T21:07:12.558Z,48.66
2023-01-02T21:09:38.900Z,48.71
2023-01-02T21:12:25.409Z,48.87
2023-01-02T21:14:51.757Z,48.52
2023-01-02T21:17:19.396Z,48.76
2023-01-02T21:19:45.861Z,48.88
2023-01-02T21:22:12.218Z,48.80
2023-01-02T21:24:38.566Z,48.80
2023-01-02T21:27:12.964Z,49.03
2023-01-02T21:29:40.584Z,48.98
2023-01-02T21:32:07.185Z,48.92
2023-01-02T21:34:33.554Z,48.81
2023-01-02T21:37:00.230Z,48.88
2023-01-02T21:39:29.702Z,48.94
2023-01-02T21:42:14.356Z,48.81
2023-01-02T21:44:40.889Z,48.75
2023-01-02T21:47:07.609Z,48.77
2023-01-02T21:49:35.667Z,48.80
2023-01-02T21:52:03.534Z,49.02
2023-01-02T21:54:31.489Z,49.08
2023-01-02T21:56:59.507Z,49.26
2023-01-02T21:59:26.949Z,49.04
2023-01-02T22:01:55.289Z,48.88
2023-01-02T22:04:23.069Z,48.99
2023-01-02T22:07:30.052Z,48.73
2023-01-02T22:09:37.797Z,48.92
2023-01-02T22:12:07.318Z,48.85
2023-01-02T22:14:37.379Z,49.29
2023-01-02T22:17:09.218Z,48.98
2023-01-02T22:19:36.438Z,49.06
2023-01-02T22:22:03.586Z,49.16
2023-01-02T22:24:30.329Z,48.95
2023-01-02T22:27:00.354Z,48.76
2023-01-02T22:29:51.511Z,48.92
2023-01-02T22:32:15.121Z,48.66
2023-01-02T22:34:44.125Z,48.86
2023-01-02T22:37:15.536Z,48.70
2023-01-02T22:39:45.024Z,48.37
2023-01-02T22:45:30.106Z,48.62
2023-01-02T22:48:00.765Z,48.38
2023-01-02T22:50:32.178Z,48.24
2023-01-02T22:52:59.788Z,47.84
2023-01-02T22:55:27.608Z,48.30
2023-01-02T22:57:54.262Z,48.00
2023-01-02T23:00:22.815Z,47.97
2023-01-02T23:02:49.535Z,48.22
2023-01-02T23:05:18.437Z,47.92
2023-01-02T23:07:45.656Z,48.12
2023-01-02T23:10:14.741Z,47.88
2023-01-02T23:12:45.586Z,48.05
2023-01-02T23:15:14.087Z,47.61
2023-01-02T23:17:59.057Z,47.95
2023-01-02T23:20:27.034Z,47.52
2023-01-02T23:22:53.878Z,47.80
2023-01-02T23:25:20.689Z,47.65
2023-01-02T23:27:49.493Z,47.79
2023-01-02T23:30:16.394Z,48.15
2023-01-02T23:32:43.084Z,47.94
2023-01-02T23:35:11.021Z,48.19
2023-01-02T23:37:37.372Z,48.29
2023-01-02T23:40:06.105Z,48.55
2023-01-02T23:42:32.953Z,48.68
2023-01-02T23:44:59.586Z,48.54
2023-01-02T23:47:27.371Z,48.66
2023-01-02T23:49:53.760Z,48.50
2023-01-02T23:52:21.654Z,49.00
2023-01-02T23:54:48.263Z,48.71
2023-01-02T23:57:14.639Z,49.15
2023-01-02T23:59:40.997Z,48.92
